createdAt,value
2018-12-22T00:00:21.494Z,998.33
2018-12-22T00:01:22.088Z,998.42
2018-12-22T00:02:22.679Z,998.42
2018-12-22T00:03:23.279Z,998.34
2018-12-22T00:04:23.879Z,998.34
2018-12-22T00:05:24.478Z,998.31
2018-12-22T00:06:25.065Z,998.29
2018-12-22T00:07:25.665Z,998.30
2018-12-22T00:08:26.265Z,998.27
2018-12-22T00:09:26.865Z,998.15
2018-12-22T00:10:27.451Z,998.30
2018-12-22T00:11:28.051Z,998.18
2018-12-22T00:12:28.652Z,998.35
2018-12-22T00:13:29.243Z,998.27
2018-12-22T00:14:29.830Z,998.21
2018-12-22T00:15:30.428Z,998.25
2018-12-22T00:16:31.021Z,998.43
2018-12-22T00:17:31.611Z,998.38
2018-12-22T00:18:32.208Z,998.38
2018-12-22T00:19:32.806Z,998.32
2018-12-22T00:20:33.405Z,998.45
2018-12-22T00:21:34.015Z,998.35
2018-12-22T00:22:34.611Z,998.44
2018-12-22T00:23:35.212Z,998.41
2018-12-22T00:24:35.810Z,998.36
2018-12-22T00:25:36.409Z,998.34
2018-12-22T00:26:37.003Z,998.38
2018-12-22T00:27:38.884Z,998.28
2018-12-22T00:28:39.175Z,998.31
2018-12-22T00:29:39.767Z,998.29
2018-12-22T00:30:40.357Z,998.31
2018-12-22T00:31:41.053Z,998.21
2018-12-22T00:32:41.575Z,998.29
2018-12-22T00:33:42.170Z,998.34
2018-12-22T00:34:42.768Z,998.32
2018-12-22T00:35:43.358Z,998.25
2018-12-22T00:36:43.958Z,998.34
2018-12-22T00:37:44.547Z,998.32
2018-12-22T00:38:45.144Z,998.39
2018-12-22T00:39:45.747Z,998.36
2018-12-22T00:40:46.341Z,998.42
2018-12-22T00:41:46.945Z,998.38
2018-12-22T00:42:47.539Z,998.34
2018-12-22T00:43:48.131Z,998.42
2018-12-22T00:44:48.745Z,998.33
2018-12-22T00:45:49.327Z,998.35
2018-12-22T00:46:49.933Z,998.33
2018-12-22T00:47:50.522Z,998.39
2018-12-22T00:48:51.121Z,998.35
2018-12-22T00:49:51.842Z,998.38
2018-12-22T00:50:52.319Z,998.33
2018-12-22T00:51:52.921Z,998.34
2018-12-22T00:52:53.519Z,998.37
2018-12-22T00:53:54.113Z,998.32
2018-12-22T00:54:54.718Z,998.29
2018-12-22T00:55:55.316Z,998.32
2018-12-22T00:56:56.011Z,998.29
2018-12-22T00:57:56.612Z,998.27
2018-12-22T00:58:57.206Z,998.23
2018-12-22T00:59:57.804Z,998.19
2018-12-22T01:00:58.421Z,998.25
2018-12-22T01:01:59.023Z,998.27
2018-12-22T01:02:59.613Z,998.26
2018-12-22T01:04:00.210Z,998.25
2018-12-22T01:05:00.807Z,998.25
2018-12-22T01:06:01.400Z,998.08
2018-12-22T01:07:02.002Z,998.28
2018-12-22T01:08:02.590Z,998.28
2018-12-22T01:09:03.189Z,998.25
2018-12-22T01:10:03.779Z,998.30
2018-12-22T01:11:04.378Z,998.26
2018-12-22T01:12:04.974Z,998.34
2018-12-22T01:13:05.570Z,998.32
2018-12-22T01:14:06.180Z,998.31
2018-12-22T01:15:06.763Z,998.33
2018-12-22T01:16:07.356Z,998.31
2018-12-22T01:17:07.957Z,998.28
2018-12-22T01:18:08.556Z,998.34
2018-12-22T01:19:09.153Z,998.27
2018-12-22T01:20:09.750Z,998.35
2018-12-22T01:21:10.358Z,998.29
2018-12-22T01:22:10.955Z,998.27
2018-12-22T01:23:11.556Z,998.34
2018-12-22T01:24:12.154Z,998.26
2018-12-22T01:25:12.753Z,998.31
2018-12-22T01:26:13.351Z,998.26
2018-12-22T01:27:13.950Z,998.30
2018-12-22T01:28:14.544Z,998.23
2018-12-22T01:29:15.146Z,998.19
2018-12-22T01:30:15.736Z,998.15
2018-12-22T01:31:16.333Z,998.09
2018-12-22T01:32:16.929Z,998.01
2018-12-22T01:33:17.528Z,998.01
2018-12-22T01:34:18.121Z,997.95
2018-12-22T01:35:18.717Z,997.97
2018-12-22T01:36:19.307Z,997.98
2018-12-22T01:37:19.906Z,998.03
2018-12-22T01:38:20.506Z,998.02
2018-12-22T01:39:21.104Z,998.07
2018-12-22T01:40:21.697Z,998.06
2018-12-22T01:41:22.297Z,998.08
2018-12-22T01:42:22.897Z,998.13
2018-12-22T01:43:23.487Z,998.13
2018-12-22T01:44:24.086Z,998.11
2018-12-22T01:45:24.685Z,998.10
2018-12-22T01:46:25.282Z,998.08
2018-12-22T01:47:25.880Z,998.11
2018-12-22T01:48:26.478Z,998.06
2018-12-22T01:49:27.067Z,998.07
2018-12-22T01:50:27.662Z,997.89
2018-12-22T01:51:28.252Z,998.03
2018-12-22T01:52:28.852Z,998.01
2018-12-22T01:53:29.454Z,998.02
2018-12-22T01:54:30.045Z,998.01
2018-12-22T01:55:30.646Z,998.09
2018-12-22T01:56:31.244Z,998.07
2018-12-22T01:57:31.842Z,998.10
2018-12-22T01:58:32.433Z,998.09
2018-12-22T01:59:33.034Z,998.02
2018-12-22T02:00:33.630Z,998.07
2018-12-22T02:01:34.230Z,998.08
2018-12-22T02:02:34.823Z,998.12
2018-12-22T02:03:35.414Z,998.13
2018-12-22T02:04:36.013Z,998.06
2018-12-22T02:05:36.611Z,998.14
2018-12-22T02:06:37.200Z,998.04
2018-12-22T02:07:37.788Z,998.11
2018-12-22T02:08:38.387Z,998.03
2018-12-22T02:09:38.986Z,997.99
2018-12-22T02:10:39.577Z,998.02
2018-12-22T02:11:40.175Z,998.02
2018-12-22T02:12:40.773Z,997.95
2018-12-22T02:13:41.371Z,997.97
2018-12-22T02:14:41.959Z,997.89
2018-12-22T02:15:42.552Z,997.99
2018-12-22T02:16:43.153Z,997.97
2018-12-22T02:17:43.746Z,997.95
2018-12-22T02:18:44.345Z,997.93
2018-12-22T02:19:44.936Z,997.92
2018-12-22T02:20:45.528Z,997.84
2018-12-22T02:21:46.132Z,997.94
2018-12-22T02:22:46.731Z,997.86
2018-12-22T02:23:47.327Z,997.87
2018-12-22T02:24:47.925Z,997.92
2018-12-22T02:25:48.521Z,997.88
2018-12-22T02:26:49.140Z,997.91
2018-12-22T02:27:49.713Z,997.89
2018-12-22T02:28:56.497Z,997.94
2018-12-22T02:29:51.892Z,997.81
2018-12-22T02:30:52.481Z,997.93
2018-12-22T02:31:53.082Z,997.82
2018-12-22T02:32:53.683Z,997.84
2018-12-22T02:33:54.280Z,997.76
2018-12-22T02:34:54.887Z,997.79
2018-12-22T02:35:55.479Z,997.70
2018-12-22T02:36:56.076Z,997.71
2018-12-22T02:37:56.675Z,997.78
2018-12-22T02:38:57.267Z,997.76
2018-12-22T02:39:57.865Z,997.73
2018-12-22T02:40:58.465Z,997.72
2018-12-22T02:41:59.056Z,997.75
2018-12-22T02:42:59.662Z,997.67
2018-12-22T02:44:00.259Z,997.62
2018-12-22T02:45:00.855Z,997.73
2018-12-22T02:46:01.458Z,997.64
2018-12-22T02:47:02.048Z,997.55
2018-12-22T02:48:02.644Z,997.52
2018-12-22T02:49:03.232Z,997.49
2018-12-22T02:50:03.830Z,997.58
2018-12-22T02:51:04.424Z,997.44
2018-12-22T02:52:05.024Z,997.51
2018-12-22T02:53:05.626Z,997.44
2018-12-22T02:54:06.248Z,997.45
2018-12-22T02:55:06.816Z,997.43
2018-12-22T02:56:07.415Z,997.39
2018-12-22T02:57:08.013Z,997.44
2018-12-22T02:58:08.612Z,997.36
2018-12-22T02:59:09.206Z,997.41
2018-12-22T03:00:09.802Z,997.36
2018-12-22T03:01:10.396Z,997.32
2018-12-22T03:02:10.989Z,997.23
2018-12-22T03:03:11.587Z,997.18
2018-12-22T03:04:12.175Z,997.27
2018-12-22T03:05:12.774Z,997.24
2018-12-22T03:06:13.378Z,997.19
2018-12-22T03:07:13.968Z,997.21
2018-12-22T03:08:14.566Z,997.11
2018-12-22T03:09:15.164Z,997.13
2018-12-22T03:10:15.762Z,997.13
2018-12-22T03:11:16.367Z,997.20
2018-12-22T03:12:16.961Z,997.14
2018-12-22T03:13:17.551Z,997.15
2018-12-22T03:14:18.140Z,997.22
2018-12-22T03:15:18.733Z,997.13
2018-12-22T03:16:19.339Z,997.24
2018-12-22T03:17:19.920Z,997.20
2018-12-22T03:18:20.519Z,997.13
2018-12-22T03:19:21.137Z,997.22
2018-12-22T03:20:21.706Z,997.14
2018-12-22T03:21:22.304Z,997.19
2018-12-22T03:22:22.901Z,997.10
2018-12-22T03:23:23.492Z,997.23
2018-12-22T03:24:24.095Z,997.11
2018-12-22T03:25:24.683Z,997.23
2018-12-22T03:26:25.271Z,997.12
2018-12-22T03:27:25.869Z,997.08
2018-12-22T03:28:26.459Z,997.05
2018-12-22T03:29:27.058Z,997.07
2018-12-22T03:30:27.660Z,997.04
2018-12-22T03:31:28.257Z,997.11
2018-12-22T03:32:28.847Z,997.16
2018-12-22T03:33:29.445Z,996.98
2018-12-22T03:34:30.044Z,997.11
2018-12-22T03:35:30.634Z,997.20
2018-12-22T03:36:31.220Z,997.12
2018-12-22T03:37:31.817Z,997.15
2018-12-22T03:38:32.414Z,997.10
2018-12-22T03:39:33.009Z,997.18
2018-12-22T03:40:33.603Z,997.30
2018-12-22T03:41:34.208Z,997.47
2018-12-22T03:42:34.801Z,997.50
2018-12-22T03:43:35.442Z,997.47
2018-12-22T03:44:35.997Z,997.61
2018-12-22T03:45:36.609Z,997.54
2018-12-22T03:46:37.188Z,997.72
2018-12-22T03:47:37.787Z,997.74
2018-12-22T03:48:38.384Z,998.05
2018-12-22T03:49:38.983Z,997.91
2018-12-22T03:50:39.578Z,997.84
2018-12-22T03:51:40.174Z,997.90
2018-12-22T03:52:40.775Z,997.62
2018-12-22T03:53:41.369Z,997.59
2018-12-22T03:54:41.959Z,997.74
2018-12-22T03:55:42.556Z,997.84
2018-12-22T03:56:43.143Z,997.49
2018-12-22T03:57:43.735Z,997.51
2018-12-22T03:58:44.332Z,997.56
2018-12-22T03:59:44.919Z,997.49
2018-12-22T04:00:45.515Z,997.47
2018-12-22T04:01:46.106Z,997.56
2018-12-22T04:02:46.697Z,997.66
2018-12-22T04:03:47.290Z,997.44
2018-12-22T04:04:47.902Z,997.64
2018-12-22T04:05:48.477Z,997.63
2018-12-22T04:06:49.066Z,997.67
2018-12-22T04:07:49.659Z,997.65
2018-12-22T04:08:50.251Z,997.66
2018-12-22T04:09:50.846Z,997.58
2018-12-22T04:10:51.443Z,997.56
2018-12-22T04:11:52.047Z,997.53
2018-12-22T04:12:52.642Z,997.60
2018-12-22T04:13:53.234Z,997.74
2018-12-22T04:14:53.832Z,997.73
2018-12-22T04:15:54.428Z,997.73
2018-12-22T04:16:55.028Z,997.70
2018-12-22T04:17:55.630Z,997.54
2018-12-22T04:18:56.205Z,997.75
2018-12-22T04:19:56.804Z,997.74
2018-12-22T04:20:57.399Z,997.80
2018-12-22T04:21:57.998Z,997.93
2018-12-22T04:22:58.590Z,997.96
2018-12-22T04:23:59.187Z,998.03
2018-12-22T04:24:59.782Z,997.83
2018-12-22T04:26:00.370Z,997.81
2018-12-22T04:27:00.970Z,997.75
2018-12-22T04:28:01.572Z,997.83
2018-12-22T04:29:02.293Z,997.93
2018-12-22T04:30:02.750Z,997.88
2018-12-22T04:31:03.349Z,997.90
2018-12-22T04:32:03.937Z,997.77
2018-12-22T04:33:04.532Z,997.90
2018-12-22T04:34:05.121Z,997.96
2018-12-22T04:35:05.715Z,997.87
2018-12-22T04:36:06.308Z,997.64
2018-12-22T04:37:06.896Z,997.83
2018-12-22T04:38:07.488Z,997.76
2018-12-22T04:39:08.096Z,997.79
2018-12-22T04:40:08.673Z,997.81
2018-12-22T04:41:09.268Z,997.89
2018-12-22T04:42:09.866Z,997.62
2018-12-22T04:43:10.463Z,997.84
2018-12-22T04:44:11.058Z,997.73
2018-12-22T04:45:11.659Z,997.40
2018-12-22T04:46:12.254Z,997.71
2018-12-22T04:47:12.850Z,997.79
2018-12-22T04:48:13.447Z,997.74
2018-12-22T04:49:14.050Z,997.92
2018-12-22T04:50:14.651Z,997.88
2018-12-22T04:51:15.242Z,997.85
2018-12-22T04:52:15.839Z,997.59
2018-12-22T04:53:16.471Z,997.85
2018-12-22T04:54:17.025Z,997.90
2018-12-22T04:55:17.640Z,997.91
2018-12-22T04:56:18.220Z,997.89
2018-12-22T04:57:18.816Z,997.93
2018-12-22T04:58:19.417Z,997.91
2018-12-22T04:59:20.018Z,997.92
2018-12-22T05:00:20.621Z,997.78
2018-12-22T05:01:21.210Z,997.81
2018-12-22T05:02:21.806Z,997.75
2018-12-22T05:03:22.406Z,998.01
2018-12-22T05:04:23.013Z,997.87
2018-12-22T05:05:23.598Z,998.00
2018-12-22T05:06:24.198Z,997.98
2018-12-22T05:07:24.787Z,997.99
2018-12-22T05:08:25.386Z,998.06
2018-12-22T05:09:25.976Z,997.97
2018-12-22T05:10:26.573Z,997.91
2018-12-22T05:11:27.253Z,998.06
2018-12-22T05:12:27.778Z,998.03
2018-12-22T05:13:28.372Z,998.01
2018-12-22T05:14:28.971Z,998.08
2018-12-22T05:15:29.555Z,998.03
2018-12-22T05:16:30.158Z,998.11
2018-12-22T05:17:30.749Z,998.04
2018-12-22T05:18:31.341Z,998.13
2018-12-22T05:19:31.936Z,998.16
2018-12-22T05:20:32.543Z,998.17
2018-12-22T05:21:33.134Z,998.14
2018-12-22T05:22:33.729Z,998.14
2018-12-22T05:23:34.322Z,998.05
2018-12-22T05:24:34.921Z,998.18
2018-12-22T05:25:35.509Z,998.16
2018-12-22T05:26:36.101Z,998.24
2018-12-22T05:27:36.690Z,998.09
2018-12-22T05:28:37.287Z,998.09
2018-12-22T05:29:37.888Z,998.15
2018-12-22T05:30:38.485Z,998.12
2018-12-22T05:31:39.072Z,998.13
2018-12-22T05:32:39.668Z,998.19
2018-12-22T05:33:40.303Z,998.25
2018-12-22T05:34:40.866Z,998.17
2018-12-22T05:35:41.452Z,998.17
2018-12-22T05:36:42.051Z,998.25
2018-12-22T05:37:42.636Z,998.18
2018-12-22T05:38:43.235Z,998.05
2018-12-22T05:39:43.822Z,998.22
2018-12-22T05:40:44.428Z,998.16
2018-12-22T05:41:45.019Z,998.25
2018-12-22T05:42:45.615Z,998.13
2018-12-22T05:43:46.214Z,998.28
2018-12-22T05:44:46.813Z,998.25
2018-12-22T05:45:47.408Z,998.17
2018-12-22T05:46:48.042Z,998.22
2018-12-22T05:47:48.609Z,998.21
2018-12-22T05:48:49.198Z,998.32
2018-12-22T05:49:49.799Z,998.34
2018-12-22T05:50:50.396Z,998.28
2018-12-22T05:51:50.995Z,998.39
2018-12-22T05:52:51.598Z,998.25
2018-12-22T05:53:52.193Z,998.40
2018-12-22T05:54:52.788Z,998.27
2018-12-22T05:55:53.389Z,998.31
2018-12-22T05:56:53.986Z,998.29
2018-12-22T05:57:54.584Z,998.39
2018-12-22T05:58:55.185Z,998.38
2018-12-22T06:00:00.367Z,998.39
2018-12-22T06:00:57.359Z,998.20
2018-12-22T06:01:57.960Z,998.48
2018-12-22T06:02:58.548Z,998.33
2018-12-22T06:03:59.151Z,998.42
2018-12-22T06:04:59.741Z,998.45
2018-12-22T06:06:00.338Z,998.49
2018-12-22T06:07:00.937Z,998.51
2018-12-22T06:08:01.536Z,998.60
2018-12-22T06:09:02.128Z,998.44
2018-12-22T06:10:02.731Z,998.52
2018-12-22T06:11:03.325Z,998.50
2018-12-22T06:12:03.923Z,998.64
2018-12-22T06:13:04.519Z,998.64
2018-12-22T06:14:05.117Z,998.64
2018-12-22T06:15:05.705Z,998.60
2018-12-22T06:16:06.299Z,998.71
2018-12-22T06:17:06.888Z,998.77
2018-12-22T06:18:07.492Z,998.60
2018-12-22T06:19:08.088Z,998.80
2018-12-22T06:20:08.674Z,998.76
2018-12-22T06:21:09.272Z,998.83
2018-12-22T06:22:09.871Z,998.71
2018-12-22T06:23:10.466Z,998.90
2018-12-22T06:24:11.067Z,998.80
2018-12-22T06:25:11.660Z,998.99
2018-12-22T06:26:12.284Z,999.07
2018-12-22T06:27:12.854Z,999.13
2018-12-22T06:28:13.465Z,999.13
2018-12-22T06:29:14.051Z,999.16
2018-12-22T06:30:14.634Z,999.03
2018-12-22T06:31:15.229Z,999.09
2018-12-22T06:32:15.826Z,998.92
2018-12-22T06:33:16.423Z,998.99
2018-12-22T06:34:17.009Z,999.18
2018-12-22T06:35:17.612Z,999.15
2018-12-22T06:36:18.199Z,999.13
2018-12-22T06:37:18.789Z,999.23
2018-12-22T06:38:19.385Z,999.38
2018-12-22T06:39:19.983Z,999.40
2018-12-22T06:40:20.566Z,999.49
2018-12-22T06:41:21.163Z,999.57
2018-12-22T06:42:21.753Z,999.44
2018-12-22T06:43:22.352Z,999.39
2018-12-22T06:44:22.947Z,999.53
2018-12-22T06:45:23.546Z,999.57
2018-12-22T06:46:24.145Z,999.61
2018-12-22T06:47:24.741Z,999.62
2018-12-22T06:48:25.328Z,999.61
2018-12-22T06:49:25.928Z,999.59
2018-12-22T06:50:26.514Z,999.63
2018-12-22T06:51:27.114Z,999.69
2018-12-22T06:52:27.704Z,999.70
2018-12-22T06:53:28.293Z,999.65
2018-12-22T06:54:28.882Z,999.72
2018-12-22T06:55:29.475Z,999.82
2018-12-22T06:56:30.066Z,999.76
2018-12-22T06:57:30.654Z,999.77
2018-12-22T06:58:31.249Z,999.79
2018-12-22T06:59:31.831Z,999.84
2018-12-22T07:00:32.430Z,999.86
2018-12-22T07:01:33.028Z,999.82
2018-12-22T07:02:33.621Z,999.91
2018-12-22T07:03:34.207Z,999.92
2018-12-22T07:04:34.801Z,999.86
2018-12-22T07:05:35.386Z,999.99
2018-12-22T07:06:35.978Z,999.95
2018-12-22T07:07:36.569Z,999.98
2018-12-22T07:08:37.161Z,1000.03
2018-12-22T07:09:37.757Z,1000.12
2018-12-22T07:10:38.347Z,1000.10
2018-12-22T07:11:38.946Z,1000.17
2018-12-22T07:12:39.546Z,1000.18
2018-12-22T07:13:40.248Z,1000.18
2018-12-22T07:14:40.734Z,1000.21
2018-12-22T07:15:41.331Z,1000.28
2018-12-22T07:16:41.921Z,1000.26
2018-12-22T07:17:42.513Z,1000.20
2018-12-22T07:18:43.107Z,1000.28
2018-12-22T07:19:43.706Z,1000.41
2018-12-22T07:20:44.302Z,1000.39
2018-12-22T07:21:44.904Z,1000.43
2018-12-22T07:22:45.499Z,1000.43
2018-12-22T07:23:46.099Z,1000.45
2018-12-22T07:24:46.774Z,1000.49
2018-12-22T07:25:47.295Z,1000.49
2018-12-22T07:26:47.894Z,1000.59
2018-12-22T07:27:48.494Z,1000.52
2018-12-22T07:28:49.094Z,1000.61
2018-12-22T07:29:49.695Z,1000.59
2018-12-22T07:30:50.284Z,1000.70
2018-12-22T07:31:50.884Z,1000.73
2018-12-22T07:32:56.841Z,1000.69
2018-12-22T07:33:52.086Z,1000.63
2018-12-22T07:34:52.680Z,1000.66
2018-12-22T07:35:53.277Z,1000.68
2018-12-22T07:36:53.873Z,1000.74
2018-12-22T07:37:54.477Z,1000.68
2018-12-22T07:38:55.075Z,1000.78
2018-12-22T07:39:55.693Z,1000.90
2018-12-22T07:40:56.273Z,1000.88
2018-12-22T07:41:56.867Z,1000.97
2018-12-22T07:42:57.459Z,1000.89
2018-12-22T07:43:58.064Z,1000.94
2018-12-22T07:44:58.661Z,1000.95
2018-12-22T07:45:59.261Z,1001.06
2018-12-22T07:46:59.871Z,1001.11
2018-12-22T07:48:00.458Z,1001.09
2018-12-22T07:49:01.060Z,1001.10
2018-12-22T07:50:01.678Z,1001.10
2018-12-22T07:51:02.262Z,1001.20
2018-12-22T07:52:02.875Z,1001.31
2018-12-22T07:53:03.461Z,1001.30
2018-12-22T07:54:04.087Z,1001.25
2018-12-22T07:55:04.666Z,1001.27
2018-12-22T07:56:05.272Z,1001.36
2018-12-22T07:57:05.862Z,1001.36
2018-12-22T07:58:06.481Z,1001.23
2018-12-22T07:59:07.087Z,1001.44
2018-12-22T08:00:07.692Z,1001.43
2018-12-22T08:01:08.296Z,1001.35
2018-12-22T08:02:08.902Z,1001.47
2018-12-22T08:03:09.509Z,1001.42
2018-12-22T08:04:10.117Z,1001.42
2018-12-22T08:05:10.722Z,1001.41
2018-12-22T08:06:11.330Z,1001.53
2018-12-22T08:07:11.938Z,1001.52
2018-12-22T08:08:12.542Z,1001.59
2018-12-22T08:09:13.148Z,1001.56
2018-12-22T08:10:13.755Z,1001.59
2018-12-22T08:11:14.362Z,1001.65
2018-12-22T08:12:15.040Z,1001.73
2018-12-22T08:13:15.557Z,1001.70
2018-12-22T08:14:16.148Z,1001.74
2018-12-22T08:15:16.748Z,1001.76
2018-12-22T08:16:17.344Z,1001.76
2018-12-22T08:17:17.967Z,1001.81
2018-12-22T08:18:18.589Z,1001.76
2018-12-22T08:19:19.175Z,1001.81
2018-12-22T08:20:19.777Z,1001.76
2018-12-22T08:21:20.382Z,1001.76
2018-12-22T08:22:20.977Z,1001.82
2018-12-22T08:23:21.583Z,1001.94
2018-12-22T08:24:22.185Z,1001.82
2018-12-22T08:25:22.784Z,1001.96
2018-12-22T08:26:23.384Z,1001.91
2018-12-22T08:27:24.007Z,1001.94
2018-12-22T08:28:24.593Z,1001.96
2018-12-22T08:29:25.192Z,1001.96
2018-12-22T08:30:25.795Z,1002.04
2018-12-22T08:31:26.400Z,1002.02
2018-12-22T08:32:26.999Z,1002.11
2018-12-22T08:33:27.607Z,1002.09
2018-12-22T08:34:28.195Z,1002.06
2018-12-22T08:35:28.801Z,1002.09
2018-12-22T08:36:29.402Z,1002.19
2018-12-22T08:37:30.001Z,1002.17
2018-12-22T08:38:30.606Z,1002.22
2018-12-22T08:39:31.205Z,1002.20
2018-12-22T08:40:31.800Z,1002.30
2018-12-22T08:41:32.405Z,1002.31
2018-12-22T08:42:33.014Z,1002.39
2018-12-22T08:43:33.597Z,1002.34
2018-12-22T08:44:34.190Z,1002.32
2018-12-22T08:45:34.795Z,1002.36
2018-12-22T08:46:35.391Z,1002.39
2018-12-22T08:47:35.994Z,1002.44
2018-12-22T08:48:36.819Z,1002.47
2018-12-22T08:49:37.413Z,1002.48
2018-12-22T08:50:38.022Z,1002.50
2018-12-22T08:51:38.628Z,1002.50
2018-12-22T08:52:39.224Z,1002.58
2018-12-22T08:53:39.830Z,1002.61
2018-12-22T08:54:40.433Z,1002.63
2018-12-22T08:55:41.036Z,1002.61
2018-12-22T08:56:41.639Z,1002.60
2018-12-22T08:57:42.240Z,1002.65
2018-12-22T08:58:42.838Z,1002.58
2018-12-22T08:59:43.454Z,1002.54
2018-12-22T09:00:51.945Z,1002.55
2018-12-22T09:01:44.646Z,1002.60
2018-12-22T09:02:45.255Z,1002.58
2018-12-22T09:03:45.861Z,1002.63
2018-12-22T09:04:46.466Z,1002.64
2018-12-22T09:05:47.069Z,1002.68
2018-12-22T09:06:47.691Z,1002.73
2018-12-22T09:07:48.281Z,1002.77
2018-12-22T09:08:48.880Z,1002.80
2018-12-22T09:09:49.480Z,1002.79
2018-12-22T09:10:50.084Z,1002.80
2018-12-22T09:11:50.678Z,1002.87
2018-12-22T09:12:51.288Z,1002.91
2018-12-22T09:13:51.887Z,1002.97
2018-12-22T09:14:52.484Z,1003.00
2018-12-22T09:15:53.084Z,1002.97
2018-12-22T09:16:53.688Z,1002.98
2018-12-22T09:17:54.285Z,1003.11
2018-12-22T09:18:54.875Z,1003.10
2018-12-22T09:19:55.476Z,1003.18
2018-12-22T09:20:56.071Z,1003.18
2018-12-22T09:21:56.675Z,1003.19
2018-12-22T09:22:57.282Z,1003.17
2018-12-22T09:23:57.888Z,1003.25
2018-12-22T09:24:58.488Z,1003.19
2018-12-22T09:25:59.095Z,1003.25
2018-12-22T09:26:59.686Z,1003.22
2018-12-22T09:28:00.289Z,1003.21
2018-12-22T09:29:00.891Z,1003.20
2018-12-22T09:30:01.499Z,1003.20
2018-12-22T09:31:02.100Z,1003.25
2018-12-22T09:32:02.704Z,1003.18
2018-12-22T09:33:03.311Z,1003.25
2018-12-22T09:34:03.912Z,1003.18
2018-12-22T09:35:04.517Z,1003.22
2018-12-22T09:36:05.119Z,1003.27
2018-12-22T09:37:06.923Z,1003.31
2018-12-22T09:38:06.314Z,1003.34
2018-12-22T09:39:06.912Z,1003.27
2018-12-22T09:40:07.509Z,1003.34
2018-12-22T09:41:08.104Z,1003.37
2018-12-22T09:42:08.712Z,1003.35
2018-12-22T09:43:09.307Z,1003.39
2018-12-22T09:44:09.912Z,1003.38
2018-12-22T09:45:10.509Z,1003.43
2018-12-22T09:46:11.117Z,1003.43
2018-12-22T09:47:11.725Z,1003.39
2018-12-22T09:48:12.330Z,1003.38
2018-12-22T09:49:12.921Z,1003.43
2018-12-22T09:50:13.525Z,1003.44
2018-12-22T09:51:14.132Z,1003.43
2018-12-22T09:52:14.729Z,1003.45
2018-12-22T09:53:15.335Z,1003.46
2018-12-22T09:54:15.944Z,1003.52
2018-12-22T09:55:16.542Z,1003.47
2018-12-22T09:56:17.145Z,1003.51
2018-12-22T09:57:17.750Z,1003.45
2018-12-22T09:58:18.355Z,1003.50
2018-12-22T09:59:18.962Z,1003.58
2018-12-22T10:00:19.566Z,1003.64
2018-12-22T10:01:20.159Z,1003.62
2018-12-22T10:02:20.766Z,1003.63
2018-12-22T10:03:21.362Z,1003.61
2018-12-22T10:04:21.967Z,1003.64
2018-12-22T10:05:22.571Z,1003.69
2018-12-22T10:06:23.264Z,1003.64
2018-12-22T10:07:23.773Z,1003.62
2018-12-22T10:08:24.400Z,1003.65
2018-12-22T10:09:24.984Z,1003.66
2018-12-22T10:10:25.584Z,1003.69
2018-12-22T10:11:26.185Z,1003.70
2018-12-22T10:12:26.788Z,1003.68
2018-12-22T10:13:27.400Z,1003.71
2018-12-22T10:14:27.991Z,1003.63
2018-12-22T10:15:28.600Z,1003.71
2018-12-22T10:16:29.202Z,1003.67
2018-12-22T10:17:29.814Z,1003.71
2018-12-22T10:18:30.422Z,1003.66
2018-12-22T10:19:31.015Z,1003.70
2018-12-22T10:20:31.616Z,1003.77
2018-12-22T10:21:32.219Z,1003.82
2018-12-22T10:22:32.819Z,1003.78
2018-12-22T10:23:33.426Z,1003.83
2018-12-22T10:24:34.024Z,1003.84
2018-12-22T10:25:34.626Z,1003.80
2018-12-22T10:26:35.225Z,1003.87
2018-12-22T10:27:35.829Z,1003.89
2018-12-22T10:28:36.433Z,1003.87
2018-12-22T10:29:37.167Z,1003.93
2018-12-22T10:30:37.679Z,1003.88
2018-12-22T10:31:38.287Z,1003.94
2018-12-22T10:32:38.891Z,1003.91
2018-12-22T10:33:39.494Z,1003.94
2018-12-22T10:34:40.101Z,1003.97
2018-12-22T10:35:40.709Z,1003.98
2018-12-22T10:36:41.318Z,1004.03
2018-12-22T10:37:41.917Z,1004.04
2018-12-22T10:38:42.520Z,1004.02
2018-12-22T10:39:43.130Z,1004.05
2018-12-22T10:40:43.737Z,1003.97
2018-12-22T10:41:44.340Z,1004.07
2018-12-22T10:42:44.940Z,1004.04
2018-12-22T10:43:45.548Z,1004.04
2018-12-22T10:44:46.143Z,1004.04
2018-12-22T10:45:46.739Z,1003.91
2018-12-22T10:46:47.339Z,1004.03
2018-12-22T10:47:47.940Z,1004.03
2018-12-22T10:48:48.548Z,1003.94
2018-12-22T10:49:49.143Z,1004.02
2018-12-22T10:50:49.751Z,1004.05
2018-12-22T10:51:50.346Z,1004.09
2018-12-22T10:52:50.945Z,1004.08
2018-12-22T10:53:51.544Z,1004.12
2018-12-22T10:54:52.148Z,1004.12
2018-12-22T10:55:52.755Z,1004.12
2018-12-22T10:56:53.361Z,1004.04
2018-12-22T10:57:53.957Z,1004.12
2018-12-22T10:58:54.563Z,1004.15
2018-12-22T10:59:55.165Z,1004.18
2018-12-22T11:00:55.765Z,1004.21
2018-12-22T11:01:56.363Z,1004.17
2018-12-22T11:02:56.958Z,1004.05
2018-12-22T11:03:57.575Z,1004.21
2018-12-22T11:04:58.163Z,1004.19
2018-12-22T11:05:58.761Z,1004.25
2018-12-22T11:06:59.371Z,1004.25
2018-12-22T11:07:59.979Z,1004.26
2018-12-22T11:09:00.585Z,1004.28
2018-12-22T11:10:01.190Z,1004.28
2018-12-22T11:11:01.796Z,1004.24
2018-12-22T11:12:02.401Z,1004.28
2018-12-22T11:13:03.000Z,1004.28
2018-12-22T11:14:03.603Z,1004.31
2018-12-22T11:15:04.203Z,1004.26
2018-12-22T11:16:04.809Z,1004.27
2018-12-22T11:17:05.405Z,1004.34
2018-12-22T11:18:06.011Z,1004.38
2018-12-22T11:19:06.619Z,1004.36
2018-12-22T11:20:07.226Z,1004.31
2018-12-22T11:21:07.833Z,1004.31
2018-12-22T11:22:08.438Z,1004.42
2018-12-22T11:23:09.039Z,1004.40
2018-12-22T11:24:09.640Z,1004.36
2018-12-22T11:25:10.240Z,1004.37
2018-12-22T11:26:10.843Z,1004.40
2018-12-22T11:27:11.441Z,1004.45
2018-12-22T11:28:12.036Z,1004.44
2018-12-22T11:29:12.645Z,1004.47
2018-12-22T11:30:13.241Z,1004.49
2018-12-22T11:31:13.841Z,1004.45
2018-12-22T11:32:14.451Z,1004.48
2018-12-22T11:33:15.053Z,1004.47
2018-12-22T11:34:15.650Z,1004.47
2018-12-22T11:35:16.258Z,1004.52
2018-12-22T11:36:16.864Z,1004.51
2018-12-22T11:37:17.473Z,1004.55
2018-12-22T11:38:18.070Z,1004.59
2018-12-22T11:39:18.674Z,1004.50
2018-12-22T11:40:19.281Z,1004.55
2018-12-22T11:41:19.885Z,1004.53
2018-12-22T11:42:20.493Z,1004.50
2018-12-22T11:43:21.102Z,1004.56
2018-12-22T11:44:21.714Z,1004.58
2018-12-22T11:45:22.313Z,1004.57
2018-12-22T11:46:22.920Z,1004.56
2018-12-22T11:47:23.526Z,1004.55
2018-12-22T11:48:24.125Z,1004.59
2018-12-22T11:49:24.720Z,1004.61
2018-12-22T11:50:25.322Z,1004.63
2018-12-22T11:51:25.916Z,1004.67
2018-12-22T11:52:26.542Z,1004.69
2018-12-22T11:53:27.137Z,1004.73
2018-12-22T11:54:27.746Z,1004.68
2018-12-22T11:55:28.354Z,1004.77
2018-12-22T11:56:28.960Z,1004.76
2018-12-22T11:57:29.569Z,1004.84
2018-12-22T11:58:30.175Z,1004.75
2018-12-22T11:59:30.774Z,1004.83
2018-12-22T12:00:31.369Z,1004.86
2018-12-22T12:01:31.978Z,1004.80
2018-12-22T12:02:32.574Z,1004.84
2018-12-22T12:03:33.183Z,1004.88
2018-12-22T12:04:33.784Z,1004.81
2018-12-22T12:05:34.391Z,1004.77
2018-12-22T12:06:34.993Z,1004.82
2018-12-22T12:07:35.601Z,1004.85
2018-12-22T12:08:36.197Z,1004.86
2018-12-22T12:09:36.807Z,1004.86
2018-12-22T12:10:37.404Z,1004.86
2018-12-22T12:11:38.008Z,1004.85
2018-12-22T12:12:38.616Z,1004.86
2018-12-22T12:13:39.220Z,1004.86
2018-12-22T12:14:39.830Z,1004.85
2018-12-22T12:15:40.430Z,1004.84
2018-12-22T12:16:41.027Z,1004.85
2018-12-22T12:17:41.625Z,1004.90
2018-12-22T12:18:42.233Z,1004.88
2018-12-22T12:19:42.833Z,1004.91
2018-12-22T12:20:43.457Z,1004.93
2018-12-22T12:21:44.064Z,1004.90
2018-12-22T12:22:44.660Z,1004.92
2018-12-22T12:23:45.271Z,1004.88
2018-12-22T12:24:45.878Z,1004.87
2018-12-22T12:25:46.471Z,1004.83